VMC erroneous



  • Re: VMC erroneous

    Still strange reports on aerodromes, like "MVMC", "LIFR" and so on, that are not compliant with ICAO or local rules ("110720Z 22009KT 6000 -RA FEW003 SCT010 BKN020 10/10 Q0993 NOSIG" shown as "MVFR", it's simply VFR)

    cfr older post with details.


Log in to reply
 

Windyty, S.E. - all rights reserved. Powered by excellent NodeBB
NodeBB & contributors, OSM & contributors, HERE maps

Looks like your connection to Windy Community was lost, please wait while we try to reconnect.